sensor_id;sensor_type;location;lat;lon;timestamp;temperature;humidity
35746;DHT22;21870;42.812;74.628;2023-10-09T00:02:12;12.90;99.90
35746;DHT22;21870;42.812;74.628;2023-10-09T00:04:40;12.90;99.90
35746;DHT22;21870;42.812;74.628;2023-10-09T00:07:08;12.90;99.90
35746;DHT22;21870;42.812;74.628;2023-10-09T00:09:35;12.90;99.90
35746;DHT22;21870;42.812;74.628;2023-10-09T00:12:27;12.90;99.90
35746;DHT22;21870;42.812;74.628;2023-10-09T00:14:54;12.90;99.90
35746;DHT22;21870;42.812;74.628;2023-10-09T00:17:32;12.90;99.90
35746;DHT22;21870;42.812;74.628;2023-10-09T00:19:58;12.90;99.90
35746;DHT22;21870;42.812;74.628;2023-10-09T00:22:43;12.90;99.90
35746;DHT22;21870;42.812;74.628;2023-10-09T00:25:12;12.80;99.90
35746;DHT22;21870;42.812;74.628;2023-10-09T00:27:39;12.80;99.90
35746;DHT22;21870;42.812;74.628;2023-10-09T00:30:12;12.80;99.90
35746;DHT22;21870;42.812;74.628;2023-10-09T00:32:44;12.90;99.90
35746;DHT22;21870;42.812;74.628;2023-10-09T00:35:19;12.90;99.90
35746;DHT22;21870;42.812;74.628;2023-10-09T00:38:12;12.90;99.90
35746;DHT22;21870;42.812;74.628;2023-10-09T00:40:50;12.90;99.90
35746;DHT22;21870;42.812;74.628;2023-10-09T00:43:28;12.90;99.90
35746;DHT22;21870;42.812;74.628;2023-10-09T00:45:57;12.90;99.90
35746;DHT22;21870;42.812;74.628;2023-10-09T00:48:35;12.90;99.90
35746;DHT22;21870;42.812;74.628;2023-10-09T00:51:06;12.90;99.90
35746;DHT22;21870;42.812;74.628;2023-10-09T00:53:46;12.90;99.90
35746;DHT22;21870;42.812;74.628;2023-10-09T00:56:22;12.90;99.90
35746;DHT22;21870;42.812;74.628;2023-10-09T00:58:59;12.90;99.90
35746;DHT22;21870;42.812;74.628;2023-10-09T01:01:36;13.00;99.90
35746;DHT22;21870;42.812;74.628;2023-10-09T01:04:07;13.00;99.90
35746;DHT22;21870;42.812;74.628;2023-10-09T01:06:45;13.00;99.90
35746;DHT22;21870;42.812;74.628;2023-10-09T01:09:12;13.00;99.90
35746;DHT22;21870;42.812;74.628;2023-10-09T01:11:42;13.10;99.90
35746;DHT22;21870;42.812;74.628;2023-10-09T01:14:30;13.10;99.90
35746;DHT22;21870;42.812;74.628;2023-10-09T01:16:57;13.10;99.90
35746;DHT22;21870;42.812;74.628;2023-10-09T01:19:23;13.00;99.90
35746;DHT22;21870;42.812;74.628;2023-10-09T01:21:51;13.00;99.90
35746;DHT22;21870;42.812;74.628;2023-10-09T01:24:17;13.00;99.90
35746;DHT22;21870;42.812;74.628;2023-10-09T01:26:44;13.00;99.90
35746;DHT22;21870;42.812;74.628;2023-10-09T01:29:11;13.00;99.90
35746;DHT22;21870;42.812;74.628;2023-10-09T01:31:41;13.00;99.90
35746;DHT22;21870;42.812;74.628;2023-10-09T01:34:34;13.10;99.90
35746;DHT22;21870;42.812;74.628;2023-10-09T01:37:20;13.10;99.90
35746;DHT22;21870;42.812;74.628;2023-10-09T01:39:55;13.20;99.90
35746;DHT22;21870;42.812;74.628;2023-10-09T01:42:41;13.20;99.90
35746;DHT22;21870;42.812;74.628;2023-10-09T01:45:13;13.30;99.90
35746;DHT22;21870;42.812;74.628;2023-10-09T01:47:45;13.30;99.90
35746;DHT22;21870;42.812;74.628;2023-10-09T01:50:19;13.40;99.90
35746;DHT22;21870;42.812;74.628;2023-10-09T01:52:48;13.50;99.90
35746;DHT22;21870;42.812;74.628;2023-10-09T01:55:14;13.60;99.90
35746;DHT22;21870;42.812;74.628;2023-10-09T01:58:03;13.70;99.90
35746;DHT22;21870;42.812;74.628;2023-10-09T02:00:48;13.80;99.90
35746;DHT22;21870;42.812;74.628;2023-10-09T02:03:19;13.90;99.90
35746;DHT22;21870;42.812;74.628;2023-10-09T02:05:50;14.00;99.90
35746;DHT22;21870;42.812;74.628;2023-10-09T02:08:17;14.20;99.90
35746;DHT22;21870;42.812;74.628;2023-10-09T02:10:48;14.30;99.90
35746;DHT22;21870;42.812;74.628;2023-10-09T02:13:14;14.40;99.90
35746;DHT22;21870;42.812;74.628;2023-10-09T02:15:43;14.50;99.90
35746;DHT22;21870;42.812;74.628;2023-10-09T02:18:13;14.60;99.90
35746;DHT22;21870;42.812;74.628;2023-10-09T02:20:53;14.70;99.90
35746;DHT22;21870;42.812;74.628;2023-10-09T02:23:39;14.80;99.90
35746;DHT22;21870;42.812;74.628;2023-10-09T02:26:10;15.00;99.90
35746;DHT22;21870;42.812;74.628;2023-10-09T02:28:44;15.10;99.90
35746;DHT22;21870;42.812;74.628;2023-10-09T02:31:18;15.30;99.90
35746;DHT22;21870;42.812;74.628;2023-10-09T02:33:48;15.40;99.90
35746;DHT22;21870;42.812;74.628;2023-10-09T02:36:19;15.70;99.90
35746;DHT22;21870;42.812;74.628;2023-10-09T02:38:45;15.80;99.90
35746;DHT22;21870;42.812;74.628;2023-10-09T02:41:16;16.00;99.90
35746;DHT22;21870;42.812;74.628;2023-10-09T02:43:42;16.10;99.90
35746;DHT22;21870;42.812;74.628;2023-10-09T02:46:13;16.30;99.90
35746;DHT22;21870;42.812;74.628;2023-10-09T02:48:46;16.50;99.90
35746;DHT22;21870;42.812;74.628;2023-10-09T02:51:19;16.70;99.90
35746;DHT22;21870;42.812;74.628;2023-10-09T02:54:08;16.90;99.90
35746;DHT22;21870;42.812;74.628;2023-10-09T02:56:48;17.10;99.90
35746;DHT22;21870;42.812;74.628;2023-10-09T02:59:21;17.30;99.90
35746;DHT22;21870;42.812;74.628;2023-10-09T03:01:48;17.50;99.90
35746;DHT22;21870;42.812;74.628;2023-10-09T03:04:14;17.60;99.90
35746;DHT22;21870;42.812;74.628;2023-10-09T03:06:41;17.80;99.90
35746;DHT22;21870;42.812;74.628;2023-10-09T03:09:20;18.00;99.90
35746;DHT22;21870;42.812;74.628;2023-10-09T03:11:57;18.10;99.90
35746;DHT22;21870;42.812;74.628;2023-10-09T03:14:33;18.30;99.90
35746;DHT22;21870;42.812;74.628;2023-10-09T03:17:01;18.50;99.90
35746;DHT22;21870;42.812;74.628;2023-10-09T03:19:30;18.70;99.90
35746;DHT22;21870;42.812;74.628;2023-10-09T03:21:56;18.80;99.90
35746;DHT22;21870;42.812;74.628;2023-10-09T03:24:26;18.80;99.90
35746;DHT22;21870;42.812;74.628;2023-10-09T03:26:53;18.90;99.90
35746;DHT22;21870;42.812;74.628;2023-10-09T03:29:22;18.90;99.90
35746;DHT22;21870;42.812;74.628;2023-10-09T03:31:48;19.00;99.90
35746;DHT22;21870;42.812;74.628;2023-10-09T03:34:17;19.00;99.90
35746;DHT22;21870;42.812;74.628;2023-10-09T03:36:47;19.10;99.90
35746;DHT22;21870;42.812;74.628;2023-10-09T03:39:14;19.10;99.90
35746;DHT22;21870;42.812;74.628;2023-10-09T03:41:58;19.30;99.90
35746;DHT22;21870;42.812;74.628;2023-10-09T03:44:25;19.50;99.90
35746;DHT22;21870;42.812;74.628;2023-10-09T03:46:55;19.70;99.90
35746;DHT22;21870;42.812;74.628;2023-10-09T03:49:21;20.00;99.90
35746;DHT22;21870;42.812;74.628;2023-10-09T03:51:51;20.20;99.90
35746;DHT22;21870;42.812;74.628;2023-10-09T03:54:18;20.40;99.90
35746;DHT22;21870;42.812;74.628;2023-10-09T03:56:49;20.50;99.90
35746;DHT22;21870;42.812;74.628;2023-10-09T03:59:19;20.60;99.90
35746;DHT22;21870;42.812;74.628;2023-10-09T04:01:49;20.60;99.90
35746;DHT22;21870;42.812;74.628;2023-10-09T04:04:17;20.80;99.90
35746;DHT22;21870;42.812;74.628;2023-10-09T04:06:43;20.90;99.90
35746;DHT22;21870;42.812;74.628;2023-10-09T04:09:12;21.10;99.90
35746;DHT22;21870;42.812;74.628;2023-10-09T04:11:55;21.40;99.90
35746;DHT22;21870;42.812;74.628;2023-10-09T04:14:39;21.50;99.90
35746;DHT22;21870;42.812;74.628;2023-10-09T04:17:23;21.60;99.90
35746;DHT22;21870;42.812;74.628;2023-10-09T04:19:55;21.60;99.90
35746;DHT22;21870;42.812;74.628;2023-10-09T04:22:40;21.90;99.90
35746;DHT22;21870;42.812;74.628;2023-10-09T04:25:36;22.00;99.90
35746;DHT22;21870;42.812;74.628;2023-10-09T04:28:09;22.10;99.90
35746;DHT22;21870;42.812;74.628;2023-10-09T04:30:39;22.10;99.90
35746;DHT22;21870;42.812;74.628;2023-10-09T04:33:25;22.30;99.90
35746;DHT22;21870;42.812;74.628;2023-10-09T04:36:15;22.20;99.90
35746;DHT22;21870;42.812;74.628;2023-10-09T04:38:52;22.40;99.90
35746;DHT22;21870;42.812;74.628;2023-10-09T04:41:38;22.60;99.90
35746;DHT22;21870;42.812;74.628;2023-10-09T04:44:08;22.70;99.90
35746;DHT22;21870;42.812;74.628;2023-10-09T04:46:44;22.90;99.90
35746;DHT22;21870;42.812;74.628;2023-10-09T04:49:11;23.00;99.90
35746;DHT22;21870;42.812;74.628;2023-10-09T04:51:57;23.10;99.90
35746;DHT22;21870;42.812;74.628;2023-10-09T04:54:44;23.10;99.90
35746;DHT22;21870;42.812;74.628;2023-10-09T04:57:29;23.10;99.90
35746;DHT22;21870;42.812;74.628;2023-10-09T04:59:55;23.20;99.90
35746;DHT22;21870;42.812;74.628;2023-10-09T05:02:27;23.40;99.90
35746;DHT22;21870;42.812;74.628;2023-10-09T05:05:02;23.50;99.90
35746;DHT22;21870;42.812;74.628;2023-10-09T05:08:04;23.50;99.90
35746;DHT22;21870;42.812;74.628;2023-10-09T05:11:01;23.80;99.90
35746;DHT22;21870;42.812;74.628;2023-10-09T05:13:29;24.00;99.90
35746;DHT22;21870;42.812;74.628;2023-10-09T05:18:31;24.10;99.90
35746;DHT22;21870;42.812;74.628;2023-10-09T05:21:03;24.30;99.90
35746;DHT22;21870;42.812;74.628;2023-10-09T05:23:47;24.40;99.90
35746;DHT22;21870;42.812;74.628;2023-10-09T05:26:37;24.50;99.90
35746;DHT22;21870;42.812;74.628;2023-10-09T05:29:24;24.70;99.90
35746;DHT22;21870;42.812;74.628;2023-10-09T05:32:06;25.00;99.90
35746;DHT22;21870;42.812;74.628;2023-10-09T05:34:39;25.00;99.90
35746;DHT22;21870;42.812;74.628;2023-10-09T05:37:28;25.20;99.90
35746;DHT22;21870;42.812;74.628;2023-10-09T05:40:02;25.40;99.90
35746;DHT22;21870;42.812;74.628;2023-10-09T05:42:29;25.40;99.90
35746;DHT22;21870;42.812;74.628;2023-10-09T05:45:10;25.30;99.90
35746;DHT22;21870;42.812;74.628;2023-10-09T05:47:46;25.10;99.90
35746;DHT22;21870;42.812;74.628;2023-10-09T05:50:31;25.00;99.90
35746;DHT22;21870;42.812;74.628;2023-10-09T05:52:57;25.10;99.90
35746;DHT22;21870;42.812;74.628;2023-10-09T05:55:32;25.20;99.90
35746;DHT22;21870;42.812;74.628;2023-10-09T05:58:16;25.40;99.90
35746;DHT22;21870;42.812;74.628;2023-10-09T06:01:01;25.70;99.90
35746;DHT22;21870;42.812;74.628;2023-10-09T06:03:46;25.90;99.90
35746;DHT22;21870;42.812;74.628;2023-10-09T06:06:20;26.10;99.90
35746;DHT22;21870;42.812;74.628;2023-10-09T06:09:05;26.10;99.90
35746;DHT22;21870;42.812;74.628;2023-10-09T06:11:44;25.90;99.90
35746;DHT22;21870;42.812;74.628;2023-10-09T06:14:23;25.90;99.90
35746;DHT22;21870;42.812;74.628;2023-10-09T06:16:55;26.10;99.90
35746;DHT22;21870;42.812;74.628;2023-10-09T06:19:39;26.10;99.90
35746;DHT22;21870;42.812;74.628;2023-10-09T06:22:09;26.30;99.90
35746;DHT22;21870;42.812;74.628;2023-10-09T06:24:55;26.30;99.90
35746;DHT22;21870;42.812;74.628;2023-10-09T06:27:23;26.50;99.90
35746;DHT22;21870;42.812;74.628;2023-10-09T06:30:12;26.40;99.90
35746;DHT22;21870;42.812;74.628;2023-10-09T06:32:45;26.50;99.90
35746;DHT22;21870;42.812;74.628;2023-10-09T06:35:24;26.70;99.90
35746;DHT22;21870;42.812;74.628;2023-10-09T06:37:59;26.70;99.30
35746;DHT22;21870;42.812;74.628;2023-10-09T06:40:34;26.70;98.20
35746;DHT22;21870;42.812;74.628;2023-10-09T06:43:03;26.80;98.60
35746;DHT22;21870;42.812;74.628;2023-10-09T06:45:41;26.70;98.50
35746;DHT22;21870;42.812;74.628;2023-10-09T06:48:10;26.80;96.30
35746;DHT22;21870;42.812;74.628;2023-10-09T06:51:02;26.90;96.80
35746;DHT22;21870;42.812;74.628;2023-10-09T06:53:46;27.30;98.90
35746;DHT22;21870;42.812;74.628;2023-10-09T06:56:25;27.60;96.80
35746;DHT22;21870;42.812;74.628;2023-10-09T06:59:02;27.50;97.00
35746;DHT22;21870;42.812;74.628;2023-10-09T07:01:47;27.60;96.80
35746;DHT22;21870;42.812;74.628;2023-10-09T07:04:34;27.70;96.70
35746;DHT22;21870;42.812;74.628;2023-10-09T07:07:00;27.50;96.20
35746;DHT22;21870;42.812;74.628;2023-10-09T07:09:27;27.60;95.40
35746;DHT22;21870;42.812;74.628;2023-10-09T07:12:28;27.80;93.90
35746;DHT22;21870;42.812;74.628;2023-10-09T07:15:03;27.80;93.40
35746;DHT22;21870;42.812;74.628;2023-10-09T07:17:50;27.80;93.40
35746;DHT22;21870;42.812;74.628;2023-10-09T07:20:18;27.70;93.80
35746;DHT22;21870;42.812;74.628;2023-10-09T07:23:04;27.70;92.40
35746;DHT22;21870;42.812;74.628;2023-10-09T07:25:42;27.50;93.10
35746;DHT22;21870;42.812;74.628;2023-10-09T07:28:22;27.90;94.20
35746;DHT22;21870;42.812;74.628;2023-10-09T07:31:18;28.00;94.50
35746;DHT22;21870;42.812;74.628;2023-10-09T07:33:53;28.20;92.90
35746;DHT22;21870;42.812;74.628;2023-10-09T07:36:23;28.20;94.70
35746;DHT22;21870;42.812;74.628;2023-10-09T07:39:03;28.20;93.60
35746;DHT22;21870;42.812;74.628;2023-10-09T07:41:41;28.20;93.20
35746;DHT22;21870;42.812;74.628;2023-10-09T07:44:11;28.60;92.90
35746;DHT22;21870;42.812;74.628;2023-10-09T07:47:03;28.60;94.30
35746;DHT22;21870;42.812;74.628;2023-10-09T07:49:48;28.50;91.90
35746;DHT22;21870;42.812;74.628;2023-10-09T07:52:18;28.30;91.90
35746;DHT22;21870;42.812;74.628;2023-10-09T07:54:48;28.20;92.60
35746;DHT22;21870;42.812;74.628;2023-10-09T07:57:21;28.20;91.20
35746;DHT22;21870;42.812;74.628;2023-10-09T07:59:54;28.20;94.30
35746;DHT22;21870;42.812;74.628;2023-10-09T08:02:27;28.40;93.90
35746;DHT22;21870;42.812;74.628;2023-10-09T08:05:00;28.70;91.50
35746;DHT22;21870;42.812;74.628;2023-10-09T08:07:30;28.70;92.00
35746;DHT22;21870;42.812;74.628;2023-10-09T08:10:08;28.60;91.40
35746;DHT22;21870;42.812;74.628;2023-10-09T08:12:43;28.50;90.80
35746;DHT22;21870;42.812;74.628;2023-10-09T08:15:16;28.60;91.80
35746;DHT22;21870;42.812;74.628;2023-10-09T08:17:53;28.50;91.60
35746;DHT22;21870;42.812;74.628;2023-10-09T08:20:24;28.70;90.00
35746;DHT22;21870;42.812;74.628;2023-10-09T08:22:54;28.80;90.90
35746;DHT22;21870;42.812;74.628;2023-10-09T08:25:26;28.80;88.00
35746;DHT22;21870;42.812;74.628;2023-10-09T08:27:58;28.50;88.60
35746;DHT22;21870;42.812;74.628;2023-10-09T08:30:45;28.70;91.30
35746;DHT22;21870;42.812;74.628;2023-10-09T08:33:20;28.70;90.50
35746;DHT22;21870;42.812;74.628;2023-10-09T08:35:55;28.70;91.90
35746;DHT22;21870;42.812;74.628;2023-10-09T08:38:30;28.50;91.80
35746;DHT22;21870;42.812;74.628;2023-10-09T08:41:12;28.70;92.60
35746;DHT22;21870;42.812;74.628;2023-10-09T08:43:50;29.00;90.30
35746;DHT22;21870;42.812;74.628;2023-10-09T08:46:21;28.70;91.50
35746;DHT22;21870;42.812;74.628;2023-10-09T08:48:48;28.70;91.10
35746;DHT22;21870;42.812;74.628;2023-10-09T08:51:14;28.80;91.20
35746;DHT22;21870;42.812;74.628;2023-10-09T08:53:42;28.70;90.70
35746;DHT22;21870;42.812;74.628;2023-10-09T08:56:12;28.60;91.60
35746;DHT22;21870;42.812;74.628;2023-10-09T08:58:41;28.70;90.20
35746;DHT22;21870;42.812;74.628;2023-10-09T09:01:07;28.90;90.20
35746;DHT22;21870;42.812;74.628;2023-10-09T09:03:41;28.70;91.80
35746;DHT22;21870;42.812;74.628;2023-10-09T09:06:09;29.10;90.70
35746;DHT22;21870;42.812;74.628;2023-10-09T09:08:36;28.90;91.50
35746;DHT22;21870;42.812;74.628;2023-10-09T09:11:12;29.00;91.00
35746;DHT22;21870;42.812;74.628;2023-10-09T09:16:35;28.80;90.20
35746;DHT22;21870;42.812;74.628;2023-10-09T09:19:10;28.60;90.70
35746;DHT22;21870;42.812;74.628;2023-10-09T09:21:41;28.70;90.30
35746;DHT22;21870;42.812;74.628;2023-10-09T09:24:12;28.70;90.20
35746;DHT22;21870;42.812;74.628;2023-10-09T09:26:49;28.70;90.50
35746;DHT22;21870;42.812;74.628;2023-10-09T09:32:03;28.50;91.00
35746;DHT22;21870;42.812;74.628;2023-10-09T09:34:49;28.30;90.50
35746;DHT22;21870;42.812;74.628;2023-10-09T09:37:22;28.40;90.50
35746;DHT22;21870;42.812;74.628;2023-10-09T09:40:05;28.50;90.60
35746;DHT22;21870;42.812;74.628;2023-10-09T09:42:44;28.60;91.20
35746;DHT22;21870;42.812;74.628;2023-10-09T09:45:14;28.50;90.70
35746;DHT22;21870;42.812;74.628;2023-10-09T09:47:45;28.50;91.00
35746;DHT22;21870;42.812;74.628;2023-10-09T09:50:17;28.70;90.40
35746;DHT22;21870;42.812;74.628;2023-10-09T09:52:55;28.70;90.40
35746;DHT22;21870;42.812;74.628;2023-10-09T09:55:26;28.60;87.80
35746;DHT22;21870;42.812;74.628;2023-10-09T09:57:57;28.60;87.10
35746;DHT22;21870;42.812;74.628;2023-10-09T10:00:27;28.60;85.20
35746;DHT22;21870;42.812;74.628;2023-10-09T10:03:31;28.60;86.00
35746;DHT22;21870;42.812;74.628;2023-10-09T10:06:05;28.70;89.10
35746;DHT22;21870;42.812;74.628;2023-10-09T10:08:36;28.70;89.80
35746;DHT22;21870;42.812;74.628;2023-10-09T10:11:05;28.60;90.10
35746;DHT22;21870;42.812;74.628;2023-10-09T10:16:10;28.60;89.90
35746;DHT22;21870;42.812;74.628;2023-10-09T10:18:56;28.50;90.40
35746;DHT22;21870;42.812;74.628;2023-10-09T10:21:29;28.30;88.70
35746;DHT22;21870;42.812;74.628;2023-10-09T10:24:02;28.40;89.30
35746;DHT22;21870;42.812;74.628;2023-10-09T10:26:38;28.40;88.60
35746;DHT22;21870;42.812;74.628;2023-10-09T10:29:20;28.30;88.70
35746;DHT22;21870;42.812;74.628;2023-10-09T10:31:58;28.30;89.60
35746;DHT22;21870;42.812;74.628;2023-10-09T10:34:51;28.30;89.60
35746;DHT22;21870;42.812;74.628;2023-10-09T10:37:53;28.10;89.70
35746;DHT22;21870;42.812;74.628;2023-10-09T10:40:28;28.00;90.00
35746;DHT22;21870;42.812;74.628;2023-10-09T10:43:04;28.00;89.40
35746;DHT22;21870;42.812;74.628;2023-10-09T10:46:07;27.80;89.50
35746;DHT22;21870;42.812;74.628;2023-10-09T10:49:10;27.80;90.00
35746;DHT22;21870;42.812;74.628;2023-10-09T10:51:39;27.70;89.70
35746;DHT22;21870;42.812;74.628;2023-10-09T10:54:07;27.60;90.10
35746;DHT22;21870;42.812;74.628;2023-10-09T10:57:02;27.60;90.00
35746;DHT22;21870;42.812;74.628;2023-10-09T10:59:41;27.40;90.20
35746;DHT22;21870;42.812;74.628;2023-10-09T11:02:11;27.50;91.00
35746;DHT22;21870;42.812;74.628;2023-10-09T11:04:37;27.50;90.60
35746;DHT22;21870;42.812;74.628;2023-10-09T11:07:07;27.30;91.10
35746;DHT22;21870;42.812;74.628;2023-10-09T11:09:49;27.30;90.70
35746;DHT22;21870;42.812;74.628;2023-10-09T11:12:51;27.00;90.90
35746;DHT22;21870;42.812;74.628;2023-10-09T11:15:17;27.00;91.50
35746;DHT22;21870;42.812;74.628;2023-10-09T11:18:01;26.90;90.70
35746;DHT22;21870;42.812;74.628;2023-10-09T11:20:34;26.70;91.20
35746;DHT22;21870;42.812;74.628;2023-10-09T11:23:02;26.70;90.60
35746;DHT22;21870;42.812;74.628;2023-10-09T11:25:51;26.60;91.00
35746;DHT22;21870;42.812;74.628;2023-10-09T11:28:22;26.50;91.70
35746;DHT22;21870;42.812;74.628;2023-10-09T11:31:09;26.40;92.00
35746;DHT22;21870;42.812;74.628;2023-10-09T11:33:51;26.30;91.80
35746;DHT22;21870;42.812;74.628;2023-10-09T11:36:18;26.10;92.20
35746;DHT22;21870;42.812;74.628;2023-10-09T11:38:58;26.00;92.40
35746;DHT22;21870;42.812;74.628;2023-10-09T11:41:43;26.00;92.40
35746;DHT22;21870;42.812;74.628;2023-10-09T11:44:16;25.80;92.90
35746;DHT22;21870;42.812;74.628;2023-10-09T11:47:00;25.70;93.10
35746;DHT22;21870;42.812;74.628;2023-10-09T11:49:52;25.50;92.90
35746;DHT22;21870;42.812;74.628;2023-10-09T11:52:28;25.30;93.20
35746;DHT22;21870;42.812;74.628;2023-10-09T11:55:02;25.20;93.50
35746;DHT22;21870;42.812;74.628;2023-10-09T11:57:29;25.10;93.90
35746;DHT22;21870;42.812;74.628;2023-10-09T12:00:00;24.90;94.60
35746;DHT22;21870;42.812;74.628;2023-10-09T12:02:27;24.90;94.90
35746;DHT22;21870;42.812;74.628;2023-10-09T12:04:53;24.70;95.10
35746;DHT22;21870;42.812;74.628;2023-10-09T12:07:24;24.60;96.10
35746;DHT22;21870;42.812;74.628;2023-10-09T12:09:51;24.40;95.80
35746;DHT22;21870;42.812;74.628;2023-10-09T12:12:22;24.10;96.00
35746;DHT22;21870;42.812;74.628;2023-10-09T12:14:52;23.90;96.50
35746;DHT22;21870;42.812;74.628;2023-10-09T12:17:19;23.80;96.90
35746;DHT22;21870;42.812;74.628;2023-10-09T12:19:45;23.60;97.20
35746;DHT22;21870;42.812;74.628;2023-10-09T12:22:12;23.40;97.70
35746;DHT22;21870;42.812;74.628;2023-10-09T12:24:42;23.10;98.10
35746;DHT22;21870;42.812;74.628;2023-10-09T12:27:09;23.00;98.50
35746;DHT22;21870;42.812;74.628;2023-10-09T12:29:38;22.80;99.00
35746;DHT22;21870;42.812;74.628;2023-10-09T12:32:10;22.60;99.60
35746;DHT22;21870;42.812;74.628;2023-10-09T12:34:37;22.40;99.90
35746;DHT22;21870;42.812;74.628;2023-10-09T12:37:04;22.30;99.90
35746;DHT22;21870;42.812;74.628;2023-10-09T12:39:32;22.20;99.90
35746;DHT22;21870;42.812;74.628;2023-10-09T12:42:06;22.00;99.90
35746;DHT22;21870;42.812;74.628;2023-10-09T12:44:35;21.80;99.90
35746;DHT22;21870;42.812;74.628;2023-10-09T12:47:08;21.60;99.90
35746;DHT22;21870;42.812;74.628;2023-10-09T12:49:37;21.40;99.90
35746;DHT22;21870;42.812;74.628;2023-10-09T12:52:09;21.30;99.90
35746;DHT22;21870;42.812;74.628;2023-10-09T12:54:45;21.20;99.90
35746;DHT22;21870;42.812;74.628;2023-10-09T12:57:14;21.10;99.90
35746;DHT22;21870;42.812;74.628;2023-10-09T12:59:40;20.90;99.90
35746;DHT22;21870;42.812;74.628;2023-10-09T13:02:17;20.80;99.90
35746;DHT22;21870;42.812;74.628;2023-10-09T13:04:56;20.80;99.90
35746;DHT22;21870;42.812;74.628;2023-10-09T13:07:22;20.60;99.90
35746;DHT22;21870;42.812;74.628;2023-10-09T13:09:48;20.40;99.90
35746;DHT22;21870;42.812;74.628;2023-10-09T13:12:33;20.30;99.90
35746;DHT22;21870;42.812;74.628;2023-10-09T13:15:05;20.20;99.90
35746;DHT22;21870;42.812;74.628;2023-10-09T13:17:35;20.10;99.90
35746;DHT22;21870;42.812;74.628;2023-10-09T13:20:03;19.90;99.90
35746;DHT22;21870;42.812;74.628;2023-10-09T13:22:44;19.90;99.90
35746;DHT22;21870;42.812;74.628;2023-10-09T13:25:13;19.70;99.90
35746;DHT22;21870;42.812;74.628;2023-10-09T13:27:43;19.50;99.90
35746;DHT22;21870;42.812;74.628;2023-10-09T13:30:19;19.40;99.90
35746;DHT22;21870;42.812;74.628;2023-10-09T13:32:51;19.10;99.90
35746;DHT22;21870;42.812;74.628;2023-10-09T13:35:19;18.90;99.90
35746;DHT22;21870;42.812;74.628;2023-10-09T13:37:45;18.90;99.90
35746;DHT22;21870;42.812;74.628;2023-10-09T13:40:21;19.00;99.90
35746;DHT22;21870;42.812;74.628;2023-10-09T13:42:54;19.00;99.90
35746;DHT22;21870;42.812;74.628;2023-10-09T13:45:28;18.90;99.90
35746;DHT22;21870;42.812;74.628;2023-10-09T13:47:55;18.80;99.90
35746;DHT22;21870;42.812;74.628;2023-10-09T13:50:25;18.70;99.90
35746;DHT22;21870;42.812;74.628;2023-10-09T13:52:58;18.60;99.90
35746;DHT22;21870;42.812;74.628;2023-10-09T13:55:24;18.50;99.90
35746;DHT22;21870;42.812;74.628;2023-10-09T13:58:00;18.40;99.90
35746;DHT22;21870;42.812;74.628;2023-10-09T14:00:26;18.30;99.90
35746;DHT22;21870;42.812;74.628;2023-10-09T14:03:08;18.30;99.90
35746;DHT22;21870;42.812;74.628;2023-10-09T14:05:45;18.20;99.90
35746;DHT22;21870;42.812;74.628;2023-10-09T14:08:22;18.10;99.90
35746;DHT22;21870;42.812;74.628;2023-10-09T14:10:50;18.00;99.90
35746;DHT22;21870;42.812;74.628;2023-10-09T14:13:16;18.10;99.90
35746;DHT22;21870;42.812;74.628;2023-10-09T14:15:52;18.00;99.90
35746;DHT22;21870;42.812;74.628;2023-10-09T14:18:21;18.00;99.90
35746;DHT22;21870;42.812;74.628;2023-10-09T14:20:47;17.90;99.90
35746;DHT22;21870;42.812;74.628;2023-10-09T14:23:13;17.90;99.90
35746;DHT22;21870;42.812;74.628;2023-10-09T14:25:46;17.80;99.90
35746;DHT22;21870;42.812;74.628;2023-10-09T14:28:15;17.70;99.90
35746;DHT22;21870;42.812;74.628;2023-10-09T14:30:45;17.80;99.90
35746;DHT22;21870;42.812;74.628;2023-10-09T14:33:14;17.80;99.90
35746;DHT22;21870;42.812;74.628;2023-10-09T14:35:48;17.90;99.90
35746;DHT22;21870;42.812;74.628;2023-10-09T14:38:15;18.00;99.90
35746;DHT22;21870;42.812;74.628;2023-10-09T14:40:43;18.10;99.90
35746;DHT22;21870;42.812;74.628;2023-10-09T14:43:10;18.10;99.90
35746;DHT22;21870;42.812;74.628;2023-10-09T14:45:45;18.10;99.90
35746;DHT22;21870;42.812;74.628;2023-10-09T14:48:17;18.10;99.90
35746;DHT22;21870;42.812;74.628;2023-10-09T14:50:53;18.10;99.90
35746;DHT22;21870;42.812;74.628;2023-10-09T14:53:20;18.00;99.90
35746;DHT22;21870;42.812;74.628;2023-10-09T14:55:46;18.10;99.90
35746;DHT22;21870;42.812;74.628;2023-10-09T14:58:14;18.10;99.90
35746;DHT22;21870;42.812;74.628;2023-10-09T15:00:41;18.10;99.90
35746;DHT22;21870;42.812;74.628;2023-10-09T15:03:15;18.00;99.90
35746;DHT22;21870;42.812;74.628;2023-10-09T15:05:42;18.00;99.90
35746;DHT22;21870;42.812;74.628;2023-10-09T15:08:08;17.90;99.90
35746;DHT22;21870;42.812;74.628;2023-10-09T15:10:47;17.90;99.90
35746;DHT22;21870;42.812;74.628;2023-10-09T15:13:14;17.80;99.90
35746;DHT22;21870;42.812;74.628;2023-10-09T15:15:44;17.80;99.90
35746;DHT22;21870;42.812;74.628;2023-10-09T15:18:11;17.70;99.90
35746;DHT22;21870;42.812;74.628;2023-10-09T15:20:41;17.50;99.90
35746;DHT22;21870;42.812;74.628;2023-10-09T15:23:08;17.50;99.90
35746;DHT22;21870;42.812;74.628;2023-10-09T15:25:34;17.60;99.90
35746;DHT22;21870;42.812;74.628;2023-10-09T15:28:03;17.50;99.90
35746;DHT22;21870;42.812;74.628;2023-10-09T15:30:30;17.50;99.90
35746;DHT22;21870;42.812;74.628;2023-10-09T15:32:57;17.50;99.90
35746;DHT22;21870;42.812;74.628;2023-10-09T15:35:23;17.50;99.90
35746;DHT22;21870;42.812;74.628;2023-10-09T15:37:49;17.40;99.90
35746;DHT22;21870;42.812;74.628;2023-10-09T15:40:18;17.30;99.90
35746;DHT22;21870;42.812;74.628;2023-10-09T15:42:50;17.20;99.90
35746;DHT22;21870;42.812;74.628;2023-10-09T15:45:19;17.20;99.90
35746;DHT22;21870;42.812;74.628;2023-10-09T15:47:48;17.10;99.90
35746;DHT22;21870;42.812;74.628;2023-10-09T15:50:17;17.00;99.90
35746;DHT22;21870;42.812;74.628;2023-10-09T15:52:43;17.00;99.90
35746;DHT22;21870;42.812;74.628;2023-10-09T15:55:09;17.00;99.90
35746;DHT22;21870;42.812;74.628;2023-10-09T15:57:42;16.90;99.90
35746;DHT22;21870;42.812;74.628;2023-10-09T16:00:09;16.80;99.90
35746;DHT22;21870;42.812;74.628;2023-10-09T16:02:49;16.80;99.90
35746;DHT22;21870;42.812;74.628;2023-10-09T16:05:18;16.80;99.90
35746;DHT22;21870;42.812;74.628;2023-10-09T16:07:45;16.90;99.90
35746;DHT22;21870;42.812;74.628;2023-10-09T16:10:11;16.90;99.90